LGW weather

London Gatwick Airport
London, England, United Kingdom

Public forecast

Using degrees Celsius for public forecast. Weather courtesy of forecast.io.

METAR (pilot weather report)

Retrieved 2019/04/21 12:20 UTC (12 minutes ago):

EGKK 211220Z 06008KT CAVOK 23/05 Q1019

TAF (pilot weather forecast)

Retrieved 2019/04/21 12:00 UTC (32 minutes ago):

TAF EGKK 211056Z 2112/2218 09008KT CAVOK PROB40 TEMPO 2203/2208 6000